sensor_id;sensor_type;location;lat;lon;timestamp;temperature;humidity
66586;SHT30;53444;45.822;16.092;2023-02-15T00:01:11;1.19;87.28
66586;SHT30;53444;45.822;16.092;2023-02-15T00:03:40;1.24;86.99
66586;SHT30;53444;45.822;16.092;2023-02-15T00:06:07;1.26;86.41
66586;SHT30;53444;45.822;16.092;2023-02-15T00:08:34;1.21;86.39
66586;SHT30;53444;45.822;16.092;2023-02-15T00:11:05;1.14;86.11
66586;SHT30;53444;45.822;16.092;2023-02-15T00:13:32;1.14;85.87
66586;SHT30;53444;45.822;16.092;2023-02-15T00:16:01;1.23;85.43
66586;SHT30;53444;45.822;16.092;2023-02-15T00:18:28;1.20;85.70
66586;SHT30;53444;45.822;16.092;2023-02-15T00:20:56;1.19;85.31
66586;SHT30;53444;45.822;16.092;2023-02-15T00:23:23;1.14;85.31
66586;SHT30;53444;45.822;16.092;2023-02-15T00:25:50;0.99;85.53
66586;SHT30;53444;45.822;16.092;2023-02-15T00:28:17;1.00;85.46
66586;SHT30;53444;45.822;16.092;2023-02-15T00:30:44;0.94;85.52
66586;SHT30;53444;45.822;16.092;2023-02-15T00:33:10;0.94;85.45
66586;SHT30;53444;45.822;16.092;2023-02-15T00:35:37;0.91;85.34
66586;SHT30;53444;45.822;16.092;2023-02-15T00:38:05;0.79;85.80
66586;SHT30;53444;45.822;16.092;2023-02-15T00:40:32;0.76;85.75
66586;SHT30;53444;45.822;16.092;2023-02-15T00:42:59;0.68;85.73
66586;SHT30;53444;45.822;16.092;2023-02-15T00:45:26;0.65;85.71
66586;SHT30;53444;45.822;16.092;2023-02-15T00:47:53;0.50;85.82
66586;SHT30;53444;45.822;16.092;2023-02-15T00:50:20;0.45;86.04
66586;SHT30;53444;45.822;16.092;2023-02-15T00:52:46;0.45;86.51
66586;SHT30;53444;45.822;16.092;2023-02-15T00:55:14;0.55;86.40
66586;SHT30;53444;45.822;16.092;2023-02-15T00:57:41;0.53;86.97
66586;SHT30;53444;45.822;16.092;2023-02-15T01:00:09;0.46;86.48
66586;SHT30;53444;45.822;16.092;2023-02-15T01:02:36;0.37;87.24
66586;SHT30;53444;45.822;16.092;2023-02-15T01:05:14;0.26;87.18
66586;SHT30;53444;45.822;16.092;2023-02-15T01:07:44;0.14;87.78
66586;SHT30;53444;45.822;16.092;2023-02-15T01:10:11;0.19;87.71
66586;SHT30;53444;45.822;16.092;2023-02-15T01:12:39;0.24;87.79
66586;SHT30;53444;45.822;16.092;2023-02-15T01:15:07;0.15;88.02
66586;SHT30;53444;45.822;16.092;2023-02-15T01:17:34;0.18;88.15
66586;SHT30;53444;45.822;16.092;2023-02-15T01:20:01;-0.02;88.80
66586;SHT30;53444;45.822;16.092;2023-02-15T01:22:28;-0.05;88.96
66586;SHT30;53444;45.822;16.092;2023-02-15T01:24:54;-0.06;88.93
66586;SHT30;53444;45.822;16.092;2023-02-15T01:27:21;-0.03;88.97
66586;SHT30;53444;45.822;16.092;2023-02-15T01:29:49;0.22;88.02
66586;SHT30;53444;45.822;16.092;2023-02-15T01:32:15;0.19;87.70
66586;SHT30;53444;45.822;16.092;2023-02-15T01:34:42;0.19;87.47
66586;SHT30;53444;45.822;16.092;2023-02-15T01:37:09;0.21;86.89
66586;SHT30;53444;45.822;16.092;2023-02-15T01:39:35;0.29;87.35
66586;SHT30;53444;45.822;16.092;2023-02-15T01:42:02;0.37;86.64
66586;SHT30;53444;45.822;16.092;2023-02-15T01:44:52;0.42;86.53
66586;SHT30;53444;45.822;16.092;2023-02-15T01:47:22;0.37;86.77
66586;SHT30;53444;45.822;16.092;2023-02-15T01:49:56;0.26;87.37
66586;SHT30;53444;45.822;16.092;2023-02-15T01:52:25;0.14;87.79
66586;SHT30;53444;45.822;16.092;2023-02-15T01:54:52;0.19;88.07
66586;SHT30;53444;45.822;16.092;2023-02-15T01:57:22;0.11;88.79
66586;SHT30;53444;45.822;16.092;2023-02-15T01:59:54;-0.02;89.55
66586;SHT30;53444;45.822;16.092;2023-02-15T02:02:22;0.04;90.28
66586;SHT30;53444;45.822;16.092;2023-02-15T02:04:51;0.04;90.05
66586;SHT30;53444;45.822;16.092;2023-02-15T02:07:22;0.05;89.97
66586;SHT30;53444;45.822;16.092;2023-02-15T02:09:48;-0.02;90.10
66586;SHT30;53444;45.822;16.092;2023-02-15T02:12:16;0.07;89.89
66586;SHT30;53444;45.822;16.092;2023-02-15T02:14:44;0.18;89.29
66586;SHT30;53444;45.822;16.092;2023-02-15T02:17:17;0.24;89.18
66586;SHT30;53444;45.822;16.092;2023-02-15T02:19:59;0.33;88.67
66586;SHT30;53444;45.822;16.092;2023-02-15T02:22:49;0.38;88.30
66586;SHT30;53444;45.822;16.092;2023-02-15T02:25:46;0.49;87.88
66586;SHT30;53444;45.822;16.092;2023-02-15T02:28:31;0.46;87.34
66586;SHT30;53444;45.822;16.092;2023-02-15T02:31:18;0.46;86.78
66586;SHT30;53444;45.822;16.092;2023-02-15T02:33:58;0.42;86.55
66586;SHT30;53444;45.822;16.092;2023-02-15T02:36:33;0.42;86.43
66586;SHT30;53444;45.822;16.092;2023-02-15T02:39:21;0.29;86.49
66586;SHT30;53444;45.822;16.092;2023-02-15T02:41:55;0.25;86.76
66586;SHT30;53444;45.822;16.092;2023-02-15T02:44:26;0.29;86.75
66586;SHT30;53444;45.822;16.092;2023-02-15T02:46:59;0.30;86.97
66586;SHT30;53444;45.822;16.092;2023-02-15T02:49:33;0.30;86.93
66586;SHT30;53444;45.822;16.092;2023-02-15T02:52:01;0.25;87.37
66586;SHT30;53444;45.822;16.092;2023-02-15T02:54:28;0.29;87.12
66586;SHT30;53444;45.822;16.092;2023-02-15T02:56:59;0.28;87.07
66586;SHT30;53444;45.822;16.092;2023-02-15T02:59:31;0.19;87.24
66586;SHT30;53444;45.822;16.092;2023-02-15T03:02:02;0.24;87.03
66586;SHT30;53444;45.822;16.092;2023-02-15T03:04:36;0.18;87.06
66586;SHT30;53444;45.822;16.092;2023-02-15T03:07:06;0.09;87.43
66586;SHT30;53444;45.822;16.092;2023-02-15T03:09:36;0.07;87.24
66586;SHT30;53444;45.822;16.092;2023-02-15T03:12:09;-0.01;87.38
66586;SHT30;53444;45.822;16.092;2023-02-15T03:14:36;-0.01;87.31
66586;SHT30;53444;45.822;16.092;2023-02-15T03:17:04;0.05;86.82
66586;SHT30;53444;45.822;16.092;2023-02-15T03:19:35;-0.01;86.95
66586;SHT30;53444;45.822;16.092;2023-02-15T03:22:05;-0.19;87.31
66586;SHT30;53444;45.822;16.092;2023-02-15T03:24:36;-0.22;87.77
66586;SHT30;53444;45.822;16.092;2023-02-15T03:27:07;-0.13;87.73
66586;SHT30;53444;45.822;16.092;2023-02-15T03:29:37;-0.14;87.98
66586;SHT30;53444;45.822;16.092;2023-02-15T03:32:07;-0.12;87.65
66586;SHT30;53444;45.822;16.092;2023-02-15T03:34:37;-0.16;88.12
66586;SHT30;53444;45.822;16.092;2023-02-15T03:37:10;-0.12;88.08
66586;SHT30;53444;45.822;16.092;2023-02-15T03:39:42;-0.12;88.19
66586;SHT30;53444;45.822;16.092;2023-02-15T03:42:14;-0.19;88.51
66586;SHT30;53444;45.822;16.092;2023-02-15T03:44:49;-0.27;88.64
66586;SHT30;53444;45.822;16.092;2023-02-15T03:47:19;-0.32;88.19
66586;SHT30;53444;45.822;16.092;2023-02-15T03:49:53;-0.33;88.12
66586;SHT30;53444;45.822;16.092;2023-02-15T03:52:21;-0.30;88.03
66586;SHT30;53444;45.822;16.092;2023-02-15T03:54:49;-0.36;87.66
66586;SHT30;53444;45.822;16.092;2023-02-15T03:57:20;-0.37;87.82
66586;SHT30;53444;45.822;16.092;2023-02-15T04:00:11;-0.50;87.52
66586;SHT30;53444;45.822;16.092;2023-02-15T04:03:20;-0.44;87.89
66586;SHT30;53444;45.822;16.092;2023-02-15T04:05:50;-0.43;87.73
66586;SHT30;53444;45.822;16.092;2023-02-15T04:08:16;-0.54;88.63
66586;SHT30;53444;45.822;16.092;2023-02-15T04:10:43;-0.58;89.00
66586;SHT30;53444;45.822;16.092;2023-02-15T04:13:17;-0.68;89.79
66586;SHT30;53444;45.822;16.092;2023-02-15T04:15:44;-0.54;89.57
66586;SHT30;53444;45.822;16.092;2023-02-15T04:18:28;-0.45;88.96
66586;SHT30;53444;45.822;16.092;2023-02-15T04:21:14;-0.49;88.84
66586;SHT30;53444;45.822;16.092;2023-02-15T04:23:58;-0.50;88.76
66586;SHT30;53444;45.822;16.092;2023-02-15T04:26:42;-0.56;88.86
66586;SHT30;53444;45.822;16.092;2023-02-15T04:29:08;-0.50;88.34
66586;SHT30;53444;45.822;16.092;2023-02-15T04:31:35;-0.52;87.82
66586;SHT30;53444;45.822;16.092;2023-02-15T04:34:01;-0.54;88.16
66586;SHT30;53444;45.822;16.092;2023-02-15T04:36:29;-0.57;88.15
66586;SHT30;53444;45.822;16.092;2023-02-15T04:38:56;-0.61;88.01
66586;SHT30;53444;45.822;16.092;2023-02-15T04:41:22;-0.53;87.36
66586;SHT30;53444;45.822;16.092;2023-02-15T04:43:49;-0.68;87.34
66586;SHT30;53444;45.822;16.092;2023-02-15T04:46:16;-0.71;87.65
66586;SHT30;53444;45.822;16.092;2023-02-15T04:48:43;-0.80;87.77
66586;SHT30;53444;45.822;16.092;2023-02-15T04:51:10;-0.91;88.36
66586;SHT30;53444;45.822;16.092;2023-02-15T04:53:38;-1.04;88.64
66586;SHT30;53444;45.822;16.092;2023-02-15T04:56:05;-0.92;88.12
66586;SHT30;53444;45.822;16.092;2023-02-15T04:58:32;-0.85;87.50
66586;SHT30;53444;45.822;16.092;2023-02-15T05:00:58;-0.83;87.27
66586;SHT30;53444;45.822;16.092;2023-02-15T05:03:25;-0.83;87.30
66586;SHT30;53444;45.822;16.092;2023-02-15T05:05:52;-0.84;87.18
66586;SHT30;53444;45.822;16.092;2023-02-15T05:08:18;-0.75;86.58
66586;SHT30;53444;45.822;16.092;2023-02-15T05:10:48;-0.92;85.50
66586;SHT30;53444;45.822;16.092;2023-02-15T05:13:15;-1.35;87.69
66586;SHT30;53444;45.822;16.092;2023-02-15T05:15:46;-1.32;87.95
66586;SHT30;53444;45.822;16.092;2023-02-15T05:18:13;-1.39;87.89
66586;SHT30;53444;45.822;16.092;2023-02-15T05:20:40;-1.31;87.89
66586;SHT30;53444;45.822;16.092;2023-02-15T05:23:06;-1.28;87.68
66586;SHT30;53444;45.822;16.092;2023-02-15T05:25:39;-1.34;87.82
66586;SHT30;53444;45.822;16.092;2023-02-15T05:28:27;-1.38;87.89
66586;SHT30;53444;45.822;16.092;2023-02-15T05:31:04;-1.31;87.88
66586;SHT30;53444;45.822;16.092;2023-02-15T05:33:32;-1.25;87.87
66586;SHT30;53444;45.822;16.092;2023-02-15T05:36:00;-1.32;87.95
66586;SHT30;53444;45.822;16.092;2023-02-15T05:38:28;-1.34;88.06
66586;SHT30;53444;45.822;16.092;2023-02-15T05:41:00;-1.38;88.48
66586;SHT30;53444;45.822;16.092;2023-02-15T05:43:28;-1.46;88.60
66586;SHT30;53444;45.822;16.092;2023-02-15T05:45:56;-1.32;88.21
66586;SHT30;53444;45.822;16.092;2023-02-15T05:48:24;-1.34;87.95
66586;SHT30;53444;45.822;16.092;2023-02-15T05:50:57;-1.39;88.13
66586;SHT30;53444;45.822;16.092;2023-02-15T05:53:24;-1.40;88.36
66586;SHT30;53444;45.822;16.092;2023-02-15T05:55:50;-1.36;88.33
66586;SHT30;53444;45.822;16.092;2023-02-15T05:58:17;-1.22;87.97
66586;SHT30;53444;45.822;16.092;2023-02-15T06:00:45;-1.32;87.91
66586;SHT30;53444;45.822;16.092;2023-02-15T06:03:12;-1.29;87.97
66586;SHT30;53444;45.822;16.092;2023-02-15T06:05:39;-1.35;87.66
66586;SHT30;53444;45.822;16.092;2023-02-15T06:08:05;-1.20;87.98
66586;SHT30;53444;45.822;16.092;2023-02-15T06:10:32;-1.22;87.72
66586;SHT30;53444;45.822;16.092;2023-02-15T06:12:58;-1.32;88.37
66586;SHT30;53444;45.822;16.092;2023-02-15T06:15:25;-1.22;88.19
66586;SHT30;53444;45.822;16.092;2023-02-15T06:17:53;-1.13;87.71
66586;SHT30;53444;45.822;16.092;2023-02-15T06:20:21;-1.08;87.62
66586;SHT30;53444;45.822;16.092;2023-02-15T06:22:48;-1.16;88.19
66586;SHT30;53444;45.822;16.092;2023-02-15T06:25:15;-1.25;88.40
66586;SHT30;53444;45.822;16.092;2023-02-15T06:27:42;-1.26;88.73
66586;SHT30;53444;45.822;16.092;2023-02-15T06:30:10;-1.19;87.96
66586;SHT30;53444;45.822;16.092;2023-02-15T06:32:37;-1.15;88.23
66586;SHT30;53444;45.822;16.092;2023-02-15T06:35:07;-1.16;89.03
66586;SHT30;53444;45.822;16.092;2023-02-15T06:37:37;-0.99;87.82
66586;SHT30;53444;45.822;16.092;2023-02-15T06:40:06;-0.83;87.11
66586;SHT30;53444;45.822;16.092;2023-02-15T06:42:33;-0.75;86.48
66586;SHT30;53444;45.822;16.092;2023-02-15T06:45:00;-0.70;86.10
66586;SHT30;53444;45.822;16.092;2023-02-15T06:47:27;-0.70;86.05
66586;SHT30;53444;45.822;16.092;2023-02-15T06:49:56;-0.68;86.08
66586;SHT30;53444;45.822;16.092;2023-02-15T06:52:24;-0.61;85.68
66586;SHT30;53444;45.822;16.092;2023-02-15T06:54:51;-0.57;85.69
66586;SHT30;53444;45.822;16.092;2023-02-15T06:57:18;-0.54;85.82
66586;SHT30;53444;45.822;16.092;2023-02-15T06:59:53;-0.45;85.48
66586;SHT30;53444;45.822;16.092;2023-02-15T07:02:20;-0.41;85.49
66586;SHT30;53444;45.822;16.092;2023-02-15T07:04:50;-0.37;85.81
66586;SHT30;53444;45.822;16.092;2023-02-15T07:07:25;-0.26;85.76
66586;SHT30;53444;45.822;16.092;2023-02-15T07:09:52;-0.16;85.66
66586;SHT30;53444;45.822;16.092;2023-02-15T07:12:18;-0.12;85.57
66586;SHT30;53444;45.822;16.092;2023-02-15T07:15:08;-0.09;85.96
66586;SHT30;53444;45.822;16.092;2023-02-15T07:17:36;-0.01;86.25
66586;SHT30;53444;45.822;16.092;2023-02-15T07:20:04;-0.02;86.17
66586;SHT30;53444;45.822;16.092;2023-02-15T07:22:35;0.09;86.01
66586;SHT30;53444;45.822;16.092;2023-02-15T07:25:03;0.21;86.20
66586;SHT30;53444;45.822;16.092;2023-02-15T07:27:30;0.28;86.01
66586;SHT30;53444;45.822;16.092;2023-02-15T07:29:57;0.32;86.40
66586;SHT30;53444;45.822;16.092;2023-02-15T07:32:27;0.44;86.06
66586;SHT30;53444;45.822;16.092;2023-02-15T07:34:54;0.53;85.99
66586;SHT30;53444;45.822;16.092;2023-02-15T07:37:21;0.69;86.34
66586;SHT30;53444;45.822;16.092;2023-02-15T07:39:49;0.79;86.85
66586;SHT30;53444;45.822;16.092;2023-02-15T07:42:16;0.83;86.62
66586;SHT30;53444;45.822;16.092;2023-02-15T07:44:43;0.80;87.22
66586;SHT30;53444;45.822;16.092;2023-02-15T07:47:13;0.76;87.60
66586;SHT30;53444;45.822;16.092;2023-02-15T07:49:40;0.89;87.33
66586;SHT30;53444;45.822;16.092;2023-02-15T07:52:07;1.04;87.17
66586;SHT30;53444;45.822;16.092;2023-02-15T07:54:34;1.14;87.04
66586;SHT30;53444;45.822;16.092;2023-02-15T07:57:02;1.14;87.35
66586;SHT30;53444;45.822;16.092;2023-02-15T07:59:32;1.27;87.26
66586;SHT30;53444;45.822;16.092;2023-02-15T08:01:59;1.40;87.24
66586;SHT30;53444;45.822;16.092;2023-02-15T08:04:26;1.54;86.78
66586;SHT30;53444;45.822;16.092;2023-02-15T08:06:53;1.68;86.53
66586;SHT30;53444;45.822;16.092;2023-02-15T08:09:21;1.61;87.41
66586;SHT30;53444;45.822;16.092;2023-02-15T08:11:48;1.69;87.57
66586;SHT30;53444;45.822;16.092;2023-02-15T08:14:18;1.73;87.45
66586;SHT30;53444;45.822;16.092;2023-02-15T08:16:47;1.69;87.97
66586;SHT30;53444;45.822;16.092;2023-02-15T08:19:16;1.79;87.81
66586;SHT30;53444;45.822;16.092;2023-02-15T08:21:44;1.76;88.13
66586;SHT30;53444;45.822;16.092;2023-02-15T08:24:13;1.98;88.12
66586;SHT30;53444;45.822;16.092;2023-02-15T08:26:40;1.92;88.27
66586;SHT30;53444;45.822;16.092;2023-02-15T08:29:09;2.03;88.37
66586;SHT30;53444;45.822;16.092;2023-02-15T08:31:37;2.09;88.33
66586;SHT30;53444;45.822;16.092;2023-02-15T08:34:07;2.36;88.03
66586;SHT30;53444;45.822;16.092;2023-02-15T08:36:34;2.51;87.25
66586;SHT30;53444;45.822;16.092;2023-02-15T08:39:03;2.65;87.39
66586;SHT30;53444;45.822;16.092;2023-02-15T08:41:31;2.81;87.14
66586;SHT30;53444;45.822;16.092;2023-02-15T08:44:01;2.88;87.02
66586;SHT30;53444;45.822;16.092;2023-02-15T08:46:29;3.06;86.30
66586;SHT30;53444;45.822;16.092;2023-02-15T08:48:58;3.19;86.35
66586;SHT30;53444;45.822;16.092;2023-02-15T08:51:27;3.32;85.93
66586;SHT30;53444;45.822;16.092;2023-02-15T08:53:55;3.43;85.43
66586;SHT30;53444;45.822;16.092;2023-02-15T08:56:25;3.39;85.06
66586;SHT30;53444;45.822;16.092;2023-02-15T08:58:53;3.56;84.79
66586;SHT30;53444;45.822;16.092;2023-02-15T09:01:21;3.73;84.22
66586;SHT30;53444;45.822;16.092;2023-02-15T09:03:50;3.83;84.00
66586;SHT30;53444;45.822;16.092;2023-02-15T09:06:20;3.94;84.19
66586;SHT30;53444;45.822;16.092;2023-02-15T09:08:48;4.05;83.65
66586;SHT30;53444;45.822;16.092;2023-02-15T09:11:17;4.18;83.43
66586;SHT30;53444;45.822;16.092;2023-02-15T09:13:48;4.28;82.80
66586;SHT30;53444;45.822;16.092;2023-02-15T09:16:15;4.41;82.63
66586;SHT30;53444;45.822;16.092;2023-02-15T09:18:43;4.34;82.47
66586;SHT30;53444;45.822;16.092;2023-02-15T09:21:12;4.39;82.51
66586;SHT30;53444;45.822;16.092;2023-02-15T09:23:45;4.60;82.41
66586;SHT30;53444;45.822;16.092;2023-02-15T09:26:17;4.70;81.90
66586;SHT30;53444;45.822;16.092;2023-02-15T09:28:45;4.70;81.75
66586;SHT30;53444;45.822;16.092;2023-02-15T09:31:15;4.80;81.75
66586;SHT30;53444;45.822;16.092;2023-02-15T09:33:47;4.87;81.35
66586;SHT30;53444;45.822;16.092;2023-02-15T09:36:16;5.04;81.07
66586;SHT30;53444;45.822;16.092;2023-02-15T09:38:45;5.19;80.83
66586;SHT30;53444;45.822;16.092;2023-02-15T09:41:36;5.27;80.34
66586;SHT30;53444;45.822;16.092;2023-02-15T09:44:13;5.33;79.76
66586;SHT30;53444;45.822;16.092;2023-02-15T09:47:00;5.54;79.57
66586;SHT30;53444;45.822;16.092;2023-02-15T09:49:44;5.56;78.88
66586;SHT30;53444;45.822;16.092;2023-02-15T09:52:30;5.66;78.59
66586;SHT30;53444;45.822;16.092;2023-02-15T09:55:15;5.81;78.45
66586;SHT30;53444;45.822;16.092;2023-02-15T09:57:53;5.91;77.51
66586;SHT30;53444;45.822;16.092;2023-02-15T10:00:28;6.12;77.33
66586;SHT30;53444;45.822;16.092;2023-02-15T10:03:13;6.43;76.95
66586;SHT30;53444;45.822;16.092;2023-02-15T10:05:57;6.73;75.87
66586;SHT30;53444;45.822;16.092;2023-02-15T10:08:41;6.87;75.31
66586;SHT30;53444;45.822;16.092;2023-02-15T10:11:20;7.02;74.78
66586;SHT30;53444;45.822;16.092;2023-02-15T10:14:20;6.91;74.41
66586;SHT30;53444;45.822;16.092;2023-02-15T10:16:56;6.92;73.50
66586;SHT30;53444;45.822;16.092;2023-02-15T10:19:35;6.95;73.85
66586;SHT30;53444;45.822;16.092;2023-02-15T10:22:21;7.11;73.21
66586;SHT30;53444;45.822;16.092;2023-02-15T10:25:07;7.45;72.24
66586;SHT30;53444;45.822;16.092;2023-02-15T10:27:43;7.53;71.36
66586;SHT30;53444;45.822;16.092;2023-02-15T10:30:21;7.58;71.58
66586;SHT30;53444;45.822;16.092;2023-02-15T10:33:03;7.33;71.80
66586;SHT30;53444;45.822;16.092;2023-02-15T10:35:36;7.43;71.03
66586;SHT30;53444;45.822;16.092;2023-02-15T10:38:19;7.39;68.93
66586;SHT30;53444;45.822;16.092;2023-02-15T10:40:57;7.46;69.67
66586;SHT30;53444;45.822;16.092;2023-02-15T10:43:56;7.63;68.26
66586;SHT30;53444;45.822;16.092;2023-02-15T10:46:41;7.84;67.39
66586;SHT30;53444;45.822;16.092;2023-02-15T10:49:24;8.02;66.67
66586;SHT30;53444;45.822;16.092;2023-02-15T10:52:09;8.37;67.01
66586;SHT30;53444;45.822;16.092;2023-02-15T10:54:45;8.51;65.79
66586;SHT30;53444;45.822;16.092;2023-02-15T10:57:20;8.87;64.84
66586;SHT30;53444;45.822;16.092;2023-02-15T11:00:04;8.49;65.40
66586;SHT30;53444;45.822;16.092;2023-02-15T11:02:45;8.73;65.21
66586;SHT30;53444;45.822;16.092;2023-02-15T11:05:33;8.68;64.01
66586;SHT30;53444;45.822;16.092;2023-02-15T11:08:07;8.55;63.66
66586;SHT30;53444;45.822;16.092;2023-02-15T11:10:42;8.44;65.80
66586;SHT30;53444;45.822;16.092;2023-02-15T11:13:17;8.49;65.26
66586;SHT30;53444;45.822;16.092;2023-02-15T11:15:49;8.58;64.61
66586;SHT30;53444;45.822;16.092;2023-02-15T11:18:23;9.31;64.49
66586;SHT30;53444;45.822;16.092;2023-02-15T11:20:55;9.79;61.66
66586;SHT30;53444;45.822;16.092;2023-02-15T11:23:24;9.55;60.81
66586;SHT30;53444;45.822;16.092;2023-02-15T11:25:56;10.05;62.11
66586;SHT30;53444;45.822;16.092;2023-02-15T11:28:29;10.29;60.06
66586;SHT30;53444;45.822;16.092;2023-02-15T11:31:09;10.47;59.48
66586;SHT30;53444;45.822;16.092;2023-02-15T11:33:40;10.63;59.13
66586;SHT30;53444;45.822;16.092;2023-02-15T11:36:14;9.85;59.71
66586;SHT30;53444;45.822;16.092;2023-02-15T11:38:46;9.94;60.94
66586;SHT30;53444;45.822;16.092;2023-02-15T11:41:19;10.19;60.09
66586;SHT30;53444;45.822;16.092;2023-02-15T11:43:56;9.92;60.82
66586;SHT30;53444;45.822;16.092;2023-02-15T11:46:26;10.63;59.51
66586;SHT30;53444;45.822;16.092;2023-02-15T11:48:54;10.91;57.41
66586;SHT30;53444;45.822;16.092;2023-02-15T11:51:22;10.52;59.02
66586;SHT30;53444;45.822;16.092;2023-02-15T11:53:50;9.98;60.78
66586;SHT30;53444;45.822;16.092;2023-02-15T11:56:19;9.82;60.54
66586;SHT30;53444;45.822;16.092;2023-02-15T11:58:50;9.59;61.12
66586;SHT30;53444;45.822;16.092;2023-02-15T12:01:23;9.58;60.09
66586;SHT30;53444;45.822;16.092;2023-02-15T12:03:54;10.39;60.14
66586;SHT30;53444;45.822;16.092;2023-02-15T12:06:25;11.34;57.84
66586;SHT30;53444;45.822;16.092;2023-02-15T12:09:02;12.03;56.05
66586;SHT30;53444;45.822;16.092;2023-02-15T12:11:37;12.14;54.92
66586;SHT30;53444;45.822;16.092;2023-02-15T12:14:05;12.27;53.93
66586;SHT30;53444;45.822;16.092;2023-02-15T12:16:41;11.00;56.66
66586;SHT30;53444;45.822;16.092;2023-02-15T12:19:29;10.06;59.13
66586;SHT30;53444;45.822;16.092;2023-02-15T12:21:59;10.56;58.30
66586;SHT30;53444;45.822;16.092;2023-02-15T12:24:32;10.33;58.74
66586;SHT30;53444;45.822;16.092;2023-02-15T12:27:02;10.78;58.44
66586;SHT30;53444;45.822;16.092;2023-02-15T12:29:39;11.10;56.28
66586;SHT30;53444;45.822;16.092;2023-02-15T12:32:15;12.40;54.78
66586;SHT30;53444;45.822;16.092;2023-02-15T12:34:45;12.65;53.15
66586;SHT30;53444;45.822;16.092;2023-02-15T12:37:23;12.80;53.22
66586;SHT30;53444;45.822;16.092;2023-02-15T12:39:54;12.69;52.33
66586;SHT30;53444;45.822;16.092;2023-02-15T12:42:22;13.12;52.48
66586;SHT30;53444;45.822;16.092;2023-02-15T12:45:00;13.09;52.02
66586;SHT30;53444;45.822;16.092;2023-02-15T12:47:28;13.56;52.00
66586;SHT30;53444;45.822;16.092;2023-02-15T12:50:11;12.27;53.01
66586;SHT30;53444;45.822;16.092;2023-02-15T12:52:43;12.99;52.50
66586;SHT30;53444;45.822;16.092;2023-02-15T12:55:18;13.50;51.67
66586;SHT30;53444;45.822;16.092;2023-02-15T12:57:46;12.96;52.09
66586;SHT30;53444;45.822;16.092;2023-02-15T13:00:28;13.23;51.98
66586;SHT30;53444;45.822;16.092;2023-02-15T13:02:58;13.62;51.17
66586;SHT30;53444;45.822;16.092;2023-02-15T13:05:31;13.98;49.55
66586;SHT30;53444;45.822;16.092;2023-02-15T13:08:01;14.07;49.85
66586;SHT30;53444;45.822;16.092;2023-02-15T13:10:31;13.11;50.66
66586;SHT30;53444;45.822;16.092;2023-02-15T13:13:00;13.19;51.22
66586;SHT30;53444;45.822;16.092;2023-02-15T13:15:35;13.64;50.94
66586;SHT30;53444;45.822;16.092;2023-02-15T13:18:05;13.03;51.78
66586;SHT30;53444;45.822;16.092;2023-02-15T13:20:36;13.33;51.21
66586;SHT30;53444;45.822;16.092;2023-02-15T13:23:19;12.58;52.65
66586;SHT30;53444;45.822;16.092;2023-02-15T13:25:48;13.46;51.02
66586;SHT30;53444;45.822;16.092;2023-02-15T13:28:18;13.84;50.81
66586;SHT30;53444;45.822;16.092;2023-02-15T13:30:47;14.55;48.90
66586;SHT30;53444;45.822;16.092;2023-02-15T13:33:19;14.18;48.95
66586;SHT30;53444;45.822;16.092;2023-02-15T13:36:00;13.52;50.17
66586;SHT30;53444;45.822;16.092;2023-02-15T13:38:45;12.80;50.86
66586;SHT30;53444;45.822;16.092;2023-02-15T13:41:15;13.83;50.71
66586;SHT30;53444;45.822;16.092;2023-02-15T13:43:50;14.11;48.24
66586;SHT30;53444;45.822;16.092;2023-02-15T13:46:31;14.01;49.00
66586;SHT30;53444;45.822;16.092;2023-02-15T13:49:10;13.60;50.33
66586;SHT30;53444;45.822;16.092;2023-02-15T13:51:47;14.52;48.28
66586;SHT30;53444;45.822;16.092;2023-02-15T13:54:32;13.19;49.03
66586;SHT30;53444;45.822;16.092;2023-02-15T13:57:16;13.77;49.44
66586;SHT30;53444;45.822;16.092;2023-02-15T13:59:58;13.54;49.60
66586;SHT30;53444;45.822;16.092;2023-02-15T14:02:54;14.18;49.12
66586;SHT30;53444;45.822;16.092;2023-02-15T14:05:30;15.07;46.92
66586;SHT30;53444;45.822;16.092;2023-02-15T14:08:07;15.74;45.10
66586;SHT30;53444;45.822;16.092;2023-02-15T14:10:43;15.19;45.43
66586;SHT30;53444;45.822;16.092;2023-02-15T14:13:29;15.33;45.57
66586;SHT30;53444;45.822;16.092;2023-02-15T14:16:03;15.11;45.87
66586;SHT30;53444;45.822;16.092;2023-02-15T14:18:36;15.10;46.54
66586;SHT30;53444;45.822;16.092;2023-02-15T14:21:10;15.07;46.09
66586;SHT30;53444;45.822;16.092;2023-02-15T14:23:52;15.45;45.67
66586;SHT30;53444;45.822;16.092;2023-02-15T14:26:29;15.79;45.55
66586;SHT30;53444;45.822;16.092;2023-02-15T14:29:11;16.26;43.98
66586;SHT30;53444;45.822;16.092;2023-02-15T14:31:43;16.55;43.40
66586;SHT30;53444;45.822;16.092;2023-02-15T14:34:19;16.67;42.93
66586;SHT30;53444;45.822;16.092;2023-02-15T14:36:48;16.66;42.90
66586;SHT30;53444;45.822;16.092;2023-02-15T14:39:26;17.10;42.27
66586;SHT30;53444;45.822;16.092;2023-02-15T14:42:17;17.42;41.59
66586;SHT30;53444;45.822;16.092;2023-02-15T14:44:48;14.63;45.91
66586;SHT30;53444;45.822;16.092;2023-02-15T14:47:19;14.95;46.42
66586;SHT30;53444;45.822;16.092;2023-02-15T14:49:48;16.06;44.31
66586;SHT30;53444;45.822;16.092;2023-02-15T14:52:14;16.30;43.86
66586;SHT30;53444;45.822;16.092;2023-02-15T14:54:59;16.13;43.77
66586;SHT30;53444;45.822;16.092;2023-02-15T14:57:31;16.39;43.58
66586;SHT30;53444;45.822;16.092;2023-02-15T15:03:32;16.69;42.34
66586;SHT30;53444;45.822;16.092;2023-02-15T15:06:02;16.60;43.00
66586;SHT30;53444;45.822;16.092;2023-02-15T15:11:47;15.59;45.15
66586;SHT30;53444;45.822;16.092;2023-02-15T15:14:37;16.15;44.29
66586;SHT30;53444;45.822;16.092;2023-02-15T15:17:09;16.18;43.99
66586;SHT30;53444;45.822;16.092;2023-02-15T15:20:11;16.18;43.89
66586;SHT30;53444;45.822;16.092;2023-02-15T15:22:41;16.34;43.66
66586;SHT30;53444;45.822;16.092;2023-02-15T15:25:11;15.58;45.19
66586;SHT30;53444;45.822;16.092;2023-02-15T15:27:47;15.55;45.42
66586;SHT30;53444;45.822;16.092;2023-02-15T15:30:47;15.24;45.53
66586;SHT30;53444;45.822;16.092;2023-02-15T15:33:46;15.27;45.75
66586;SHT30;53444;45.822;16.092;2023-02-15T15:39:47;14.87;46.86
66586;SHT30;53444;45.822;16.092;2023-02-15T15:42:31;14.73;47.52
66586;SHT30;53444;45.822;16.092;2023-02-15T15:45:25;14.20;48.86
66586;SHT30;53444;45.822;16.092;2023-02-15T15:48:06;13.62;50.04
66586;SHT30;53444;45.822;16.092;2023-02-15T15:50:39;13.11;51.41
66586;SHT30;53444;45.822;16.092;2023-02-15T15:53:18;12.60;52.75
66586;SHT30;53444;45.822;16.092;2023-02-15T15:55:51;12.14;54.17
66586;SHT30;53444;45.822;16.092;2023-02-15T15:58:22;11.63;55.63
66586;SHT30;53444;45.822;16.092;2023-02-15T16:00:52;11.65;55.70
66586;SHT30;53444;45.822;16.092;2023-02-15T16:03:23;11.31;56.80
66586;SHT30;53444;45.822;16.092;2023-02-15T16:05:50;11.07;57.56